Costa Luminosa — ICGU — position and weather

sailwx.info

Track history (hours):
 
Tides and Currents Weather Stations Pressure Air Temp Water Temp Dewpoint Dewpoint Depression Visibility Wind Speed Wind Dir Waves Ship Positions

Costa Luminosa

Last reported at 2015-Mar-27 18:15 UTC. Time now 2015-Mar-28 17:50 UTC.
Position N 25°47' W 080°10'.

Length 292 m; draft 8 m.

Type: Ship. MMSI: 247257900.

Date/timePositionNaut miles runAvg speedWind from/ knotsBaromVisibWave heightAir tempDewpointWater temp
2015-Mar-27 18:15N 25°47' W 080°10'0 0.0
2015-Mar-27 15:15N 25°47' W 080°10'0 0.0
2015-Mar-27 10:18N 25°47' W 080°11'2 2.8
2015-Mar-27 09:34N 25°46' W 080°08'1211.5
2015-Mar-27 08:33N 25°45' W 079°56'1312.8
2015-Mar-27 07:33N 25°42' W 079°42'4614.9
2015-Mar-27 04:30N 24°57' W 079°44'1616.6
2015-Mar-27 03:33N 24°42' W 079°49'1717.2
2015-Mar-27 02:33N 24°34' W 080°06'1817.8
2015-Mar-27 01:33N 24°24' W 080°23'43117.2
2015-Mar-26 00:33N 20°34' W 086°57'6 2.7
2015-Mar-25 22:23N 20°29' W 086°59'0 0.0
2015-Mar-25 12:20N 20°29' W 086°59'3 3.9
2015-Mar-25 11:33N 20°31' W 087°01'  
2015-Mar-18 21:29N 25°05' W 077°21'0 0.0
2015-Mar-18 19:26N 25°05' W 077°21'0 0.0
2015-Mar-18 15:33N 25°05' W 077°21'3411.3
2015-Mar-18 12:34N 25°36' W 077°34'7516.8
2015-Mar-18 08:06N 26°12' W 078°47'1018.3
2015-Mar-18 07:33N 26°16' W 078°58'2217.2
2015-Mar-18 06:14N 26°10' W 079°22'1420.1
2015-Mar-18 05:33N 26°03' W 079°35'2019.7
2015-Mar-18 04:31N 25°52' W 079°54'1413.7
2015-Mar-18 03:29N 25°46' W 080°09'  
Track history (hours):
 
Tides and Currents Weather Stations Pressure Air Temp Water Temp Dewpoint Dewpoint Depression Visibility Wind Speed Wind Dir Waves Ship Positions

Costa Luminosa

Last reported at 2015-Mar-27 18:15 UTC. Time now 2015-Mar-28 17:50 UTC.
Position N 25°47' W 080°10'.

Length 292 m; draft 8 m.

Type: Ship. MMSI: 247257900.

Date/timePositionNaut miles runAvg speedWind from/ knotsBaromVisibWave heightAir tempDewpointWater temp
2015-Mar-27 18:15N 25°47' W 080°10'0 0.0
2015-Mar-27 15:15N 25°47' W 080°10'0 0.0
2015-Mar-27 10:18N 25°47' W 080°11'2 2.8
2015-Mar-27 09:34N 25°46' W 080°08'1211.5
2015-Mar-27 08:33N 25°45' W 079°56'1312.8
2015-Mar-27 07:33N 25°42' W 079°42'4614.9
2015-Mar-27 04:30N 24°57' W 079°44'1616.6
2015-Mar-27 03:33N 24°42' W 079°49'1717.2
2015-Mar-27 02:33N 24°34' W 080°06'1817.8
2015-Mar-27 01:33N 24°24' W 080°23'43117.2
2015-Mar-26 00:33N 20°34' W 086°57'6 2.7
2015-Mar-25 22:23N 20°29' W 086°59'0 0.0
2015-Mar-25 12:20N 20°29' W 086°59'3 3.9
2015-Mar-25 11:33N 20°31' W 087°01'  
2015-Mar-18 21:29N 25°05' W 077°21'0 0.0
2015-Mar-18 19:26N 25°05' W 077°21'0 0.0
2015-Mar-18 15:33N 25°05' W 077°21'3411.3
2015-Mar-18 12:34N 25°36' W 077°34'7516.8
2015-Mar-18 08:06N 26°12' W 078°47'1018.3
2015-Mar-18 07:33N 26°16' W 078°58'2217.2
2015-Mar-18 06:14N 26°10' W 079°22'1420.1
2015-Mar-18 05:33N 26°03' W 079°35'2019.7
2015-Mar-18 04:31N 25°52' W 079°54'1413.7
2015-Mar-18 03:29N 25°46' W 080°09'  

Dump ship's entire track history